createdAt,value
2022-11-11T00:01:26.181Z,99135.00
2022-11-11T00:03:58.239Z,99132.00
2022-11-11T00:06:25.360Z,99123.00
2022-11-11T00:08:52.340Z,99132.00
2022-11-11T00:11:19.486Z,99133.00
2022-11-11T00:13:46.539Z,99136.00
2022-11-11T00:16:17.371Z,99136.00
2022-11-11T00:19:04.120Z,99138.00
2022-11-11T00:21:50.519Z,99134.00
2022-11-11T00:24:49.321Z,99134.00
2022-11-11T00:27:17.414Z,99132.00
2022-11-11T00:29:48.149Z,99131.00
2022-11-11T00:32:24.533Z,99144.00
2022-11-11T00:35:12.650Z,99140.00
2022-11-11T00:37:41.663Z,99148.00
2022-11-11T00:40:10.951Z,99145.00
2022-11-11T00:42:38.632Z,99140.00
2022-11-11T00:45:07.356Z,99143.00
2022-11-11T00:47:53.225Z,99143.00
2022-11-11T00:50:47.841Z,99154.00
2022-11-11T00:53:24.825Z,99149.00
2022-11-11T00:55:54.375Z,99147.00
2022-11-11T00:58:23.354Z,99146.00
2022-11-11T01:00:53.844Z,99137.00
2022-11-11T01:03:22.553Z,99137.00
2022-11-11T01:05:50.010Z,99146.00
2022-11-11T01:08:17.300Z,99143.00
2022-11-11T01:10:44.972Z,99143.00
2022-11-11T01:13:18.627Z,99137.00
2022-11-11T01:15:51.199Z,99138.00
2022-11-11T01:18:24.769Z,99129.00
2022-11-11T01:21:05.189Z,99131.00
2022-11-11T01:23:35.598Z,99117.00
2022-11-11T01:26:14.464Z,99124.00
2022-11-11T01:28:41.966Z,99122.00
2022-11-11T01:31:14.800Z,99124.00
2022-11-11T01:33:42.441Z,99132.00
2022-11-11T01:36:19.839Z,99119.00
2022-11-11T01:38:51.873Z,99124.00
2022-11-11T01:41:32.848Z,99131.00
2022-11-11T01:44:48.577Z,99134.00
2022-11-11T01:47:18.698Z,99129.00
2022-11-11T01:50:01.201Z,99133.00
2022-11-11T01:52:32.549Z,99134.00
2022-11-11T01:55:16.192Z,99133.00
2022-11-11T01:57:57.337Z,99148.00
2022-11-11T02:00:24.816Z,99141.00
2022-11-11T02:03:07.763Z,99143.00
2022-11-11T02:08:34.295Z,99144.00
2022-11-11T02:11:16.690Z,99134.00
2022-11-11T02:14:03.518Z,99133.00
2022-11-11T02:16:30.839Z,99137.00
2022-11-11T02:18:58.170Z,99134.00
2022-11-11T02:21:45.953Z,99140.00
2022-11-11T02:24:18.247Z,99139.00
2022-11-11T02:26:46.079Z,99136.00
2022-11-11T02:29:18.175Z,99145.00
2022-11-11T02:31:45.304Z,99145.00
2022-11-11T02:34:12.549Z,99148.00
2022-11-11T02:36:42.048Z,99141.00
2022-11-11T02:39:09.374Z,99145.00
2022-11-11T02:41:54.926Z,99145.00
2022-11-11T02:44:22.338Z,99156.00
2022-11-11T02:46:49.713Z,99159.00
2022-11-11T02:49:16.769Z,99161.00
2022-11-11T02:51:44.147Z,99167.00
2022-11-11T02:54:11.303Z,99168.00
2022-11-11T02:56:57.386Z,99174.00
2022-11-11T02:59:24.668Z,99172.00
2022-11-11T03:01:51.994Z,99176.00
2022-11-11T03:04:19.721Z,99168.00
2022-11-11T03:06:46.927Z,99175.00
2022-11-11T03:09:14.634Z,99180.00
2022-11-11T03:11:42.096Z,99181.00
2022-11-11T03:14:09.460Z,99184.00
2022-11-11T03:16:55.652Z,99181.00
2022-11-11T03:19:22.954Z,99202.00
2022-11-11T03:24:56.130Z,99197.00
2022-11-11T03:27:23.491Z,99200.00
2022-11-11T03:29:50.554Z,99205.00
2022-11-11T03:32:17.716Z,99201.00
2022-11-11T03:34:44.811Z,99206.00
2022-11-11T03:37:31.041Z,99208.00
2022-11-11T03:39:58.404Z,99208.00
2022-11-11T03:42:25.569Z,99203.00
2022-11-11T03:44:52.739Z,99195.00
2022-11-11T03:47:21.131Z,99197.00
2022-11-11T03:49:48.266Z,99193.00
2022-11-11T03:52:15.552Z,99194.00
2022-11-11T03:54:42.718Z,99199.00
2022-11-11T03:57:28.364Z,99206.00
2022-11-11T03:59:55.514Z,99206.00
2022-11-11T04:02:41.115Z,99219.00
2022-11-11T04:05:26.934Z,99204.00
2022-11-11T04:08:12.718Z,99206.00
2022-11-11T04:10:39.916Z,99196.00
2022-11-11T04:13:26.430Z,99188.00
2022-11-11T04:16:08.646Z,99177.00
2022-11-11T04:18:55.738Z,99179.00
2022-11-11T04:21:43.616Z,99193.00
2022-11-11T04:24:35.239Z,99183.00
2022-11-11T04:27:09.294Z,99186.00
2022-11-11T04:29:37.411Z,99183.00
2022-11-11T04:32:26.668Z,99183.00
2022-11-11T04:34:56.829Z,99180.00
2022-11-11T04:37:26.025Z,99169.00
2022-11-11T04:40:12.496Z,99168.00
2022-11-11T04:42:40.166Z,99172.00
2022-11-11T04:45:28.628Z,99172.00
2022-11-11T04:48:10.102Z,99171.00
2022-11-11T04:50:39.645Z,99168.00
2022-11-11T04:53:10.984Z,99176.00
2022-11-11T04:55:57.887Z,99175.00
2022-11-11T04:58:33.851Z,99184.00
2022-11-11T05:01:01.732Z,99179.00
2022-11-11T05:03:28.926Z,99175.00
2022-11-11T05:06:17.547Z,99184.00
2022-11-11T05:08:57.129Z,99187.00
2022-11-11T05:11:34.064Z,99189.00
2022-11-11T05:14:22.595Z,99203.00
2022-11-11T05:17:15.428Z,99204.00
2022-11-11T05:20:01.635Z,99199.00
2022-11-11T05:22:33.733Z,99214.00
2022-11-11T05:25:19.685Z,99212.00
2022-11-11T05:27:46.687Z,99220.00
2022-11-11T05:30:16.589Z,99211.00
2022-11-11T05:32:44.000Z,99223.00
2022-11-11T05:35:12.690Z,99215.00
2022-11-11T05:37:40.654Z,99213.00
2022-11-11T05:40:09.400Z,99226.00
2022-11-11T05:42:46.290Z,99224.00
2022-11-11T05:45:16.797Z,99221.00
2022-11-11T05:47:43.999Z,99222.00
2022-11-11T05:50:11.175Z,99225.00
2022-11-11T05:52:38.218Z,99242.00
2022-11-11T05:55:06.210Z,99246.00
2022-11-11T05:57:33.279Z,99251.00
2022-11-11T06:00:00.680Z,99252.00
2022-11-11T06:02:27.699Z,99255.00
2022-11-11T06:04:55.603Z,99257.00
2022-11-11T06:07:22.762Z,99255.00
2022-11-11T06:09:49.842Z,99260.00
2022-11-11T06:12:16.895Z,99271.00
2022-11-11T06:14:44.071Z,99281.00
2022-11-11T06:17:11.109Z,99278.00
2022-11-11T06:19:38.282Z,99284.00
2022-11-11T06:22:05.358Z,99288.00
2022-11-11T06:24:32.489Z,99295.00
2022-11-11T06:27:00.120Z,99295.00
2022-11-11T06:29:27.297Z,99306.00
2022-11-11T06:31:54.405Z,99313.00
2022-11-11T06:34:21.423Z,99306.00
2022-11-11T06:36:48.739Z,99306.00
2022-11-11T06:39:15.970Z,99305.00
2022-11-11T06:41:42.993Z,99321.00
2022-11-11T06:44:10.194Z,99318.00
2022-11-11T06:46:37.352Z,99321.00
2022-11-11T06:49:04.479Z,99316.00
2022-11-11T06:51:31.607Z,99316.00
2022-11-11T06:53:58.807Z,99312.00
2022-11-11T06:56:25.905Z,99321.00
2022-11-11T06:58:53.123Z,99322.00
2022-11-11T07:01:20.261Z,99313.00
2022-11-11T07:03:47.539Z,99317.00
2022-11-11T07:06:14.654Z,99323.00
2022-11-11T07:08:44.673Z,99321.00
2022-11-11T07:11:17.475Z,99315.00
2022-11-11T07:13:46.419Z,99332.00
2022-11-11T07:16:13.492Z,99323.00
2022-11-11T07:18:40.697Z,99319.00
2022-11-11T07:21:07.841Z,99323.00
2022-11-11T07:23:34.868Z,99321.00
2022-11-11T07:26:02.156Z,99316.00
2022-11-11T07:28:29.298Z,99318.00
2022-11-11T07:30:56.554Z,99321.00
2022-11-11T07:33:24.895Z,99316.00
2022-11-11T07:35:52.139Z,99325.00
2022-11-11T07:38:19.501Z,99319.00
2022-11-11T07:40:46.657Z,99310.00
2022-11-11T07:43:13.738Z,99314.00
2022-11-11T07:45:40.983Z,99317.00
2022-11-11T07:48:08.174Z,99308.00
2022-11-11T07:50:35.324Z,99312.00
2022-11-11T07:53:02.463Z,99306.00
2022-11-11T07:55:29.648Z,99325.00
2022-11-11T07:57:58.790Z,99327.00
2022-11-11T08:00:26.410Z,99331.00
2022-11-11T08:02:58.408Z,99320.00
2022-11-11T08:05:26.313Z,99333.00
2022-11-11T08:07:53.504Z,99328.00
2022-11-11T08:10:20.686Z,99334.00
2022-11-11T08:13:13.207Z,99342.00
2022-11-11T08:15:40.406Z,99330.00
2022-11-11T08:18:07.868Z,99328.00
2022-11-11T08:20:36.703Z,99330.00
2022-11-11T08:23:49.794Z,99326.00
2022-11-11T08:26:06.308Z,99323.00
2022-11-11T08:28:35.258Z,99321.00
2022-11-11T08:31:04.363Z,99322.00
2022-11-11T08:33:33.859Z,99322.00
2022-11-11T08:36:13.872Z,99323.00
2022-11-11T08:38:44.753Z,99326.00
2022-11-11T08:41:11.965Z,99326.00
2022-11-11T08:43:38.977Z,99329.00
2022-11-11T08:46:06.801Z,99329.00
2022-11-11T08:48:34.270Z,99327.00
2022-11-11T08:51:01.532Z,99327.00
2022-11-11T08:53:29.497Z,99327.00
2022-11-11T08:55:56.732Z,99335.00
2022-11-11T08:58:23.935Z,99339.00
2022-11-11T09:00:51.150Z,99333.00
2022-11-11T09:03:18.359Z,99338.00
2022-11-11T09:05:47.552Z,99332.00
2022-11-11T09:08:14.983Z,99331.00
2022-11-11T09:10:42.880Z,99334.00
2022-11-11T09:13:10.193Z,99346.00
2022-11-11T09:15:37.539Z,99346.00
2022-11-11T09:18:04.824Z,99338.00
2022-11-11T09:20:31.868Z,99335.00
2022-11-11T09:22:59.083Z,99334.00
2022-11-11T09:25:26.086Z,99336.00
2022-11-11T09:28:01.476Z,99334.00
2022-11-11T09:30:29.865Z,99330.00
2022-11-11T09:33:05.299Z,99354.00
2022-11-11T09:35:32.567Z,99355.00
2022-11-11T09:38:01.540Z,99363.00
2022-11-11T09:40:47.039Z,99359.00
2022-11-11T09:43:40.459Z,99371.00
2022-11-11T09:46:19.093Z,99372.00
2022-11-11T09:49:07.858Z,99365.00
2022-11-11T09:52:02.252Z,99364.00
2022-11-11T09:55:15.796Z,99368.00
2022-11-11T09:57:59.696Z,99365.00
2022-11-11T10:00:31.518Z,99360.00
2022-11-11T10:03:22.248Z,99371.00
2022-11-11T10:06:05.401Z,99360.00
2022-11-11T10:08:56.317Z,99359.00
2022-11-11T10:11:51.473Z,99364.00
2022-11-11T10:14:19.006Z,99367.00
2022-11-11T10:17:15.604Z,99357.00
2022-11-11T10:20:33.193Z,99356.00
2022-11-11T10:23:32.089Z,99365.00
2022-11-11T10:26:14.554Z,99359.00
2022-11-11T10:28:45.551Z,99362.00
2022-11-11T10:31:20.862Z,99367.00
2022-11-11T10:34:13.875Z,99358.00
2022-11-11T10:36:50.317Z,99356.00
2022-11-11T10:39:27.963Z,99351.00
2022-11-11T10:41:55.145Z,99344.00
2022-11-11T10:44:31.892Z,99325.00
2022-11-11T10:47:20.383Z,99312.00
2022-11-11T10:50:03.313Z,99326.00
2022-11-11T10:52:54.907Z,99325.00
2022-11-11T10:55:31.082Z,99335.00
2022-11-11T10:58:10.887Z,99322.00
2022-11-11T11:00:44.052Z,99315.00
2022-11-11T11:03:29.413Z,99315.00
2022-11-11T11:06:08.869Z,99318.00
2022-11-11T11:08:53.364Z,99335.00
2022-11-11T11:11:31.679Z,99351.00
2022-11-11T11:14:03.544Z,99348.00
2022-11-11T11:16:34.891Z,99341.00
2022-11-11T11:19:20.563Z,99338.00
2022-11-11T11:21:55.517Z,99326.00
2022-11-11T11:24:28.409Z,99316.00
2022-11-11T11:26:59.169Z,99329.00
2022-11-11T11:29:28.576Z,99336.00
2022-11-11T11:31:56.536Z,99333.00
2022-11-11T11:34:55.912Z,99328.00
2022-11-11T11:37:26.018Z,99334.00
2022-11-11T11:40:07.471Z,99335.00
2022-11-11T11:42:39.732Z,99326.00
2022-11-11T11:45:17.278Z,99320.00
2022-11-11T11:48:30.538Z,99315.00
2022-11-11T11:51:09.875Z,99308.00
2022-11-11T11:53:59.900Z,99305.00
2022-11-11T11:56:42.621Z,99298.00
2022-11-11T11:59:32.612Z,99296.00
2022-11-11T12:02:51.897Z,99291.00
2022-11-11T12:05:36.065Z,99289.00
2022-11-11T12:08:38.604Z,99295.00
2022-11-11T12:11:44.381Z,99298.00
2022-11-11T12:14:44.877Z,99284.00
2022-11-11T12:17:48.926Z,99290.00
2022-11-11T12:20:26.885Z,99288.00
2022-11-11T12:23:18.314Z,99279.00
2022-11-11T12:26:26.388Z,99279.00
2022-11-11T12:29:11.017Z,99270.00
2022-11-11T12:32:08.392Z,99274.00
2022-11-11T12:35:17.915Z,99276.00
2022-11-11T12:38:12.036Z,99278.00
2022-11-11T12:40:56.400Z,99282.00
2022-11-11T12:43:47.701Z,99279.00
2022-11-11T12:46:57.801Z,99285.00
2022-11-11T12:50:07.448Z,99279.00
2022-11-11T12:53:17.952Z,99291.00
2022-11-11T12:56:16.577Z,99294.00
2022-11-11T12:59:11.969Z,99294.00
2022-11-11T13:01:56.574Z,99296.00
2022-11-11T13:05:08.634Z,99293.00
2022-11-11T13:08:04.668Z,99279.00
2022-11-11T13:10:50.264Z,99283.00
2022-11-11T13:13:26.667Z,99273.00
2022-11-11T13:15:54.910Z,99276.00
2022-11-11T13:18:45.166Z,99278.00
2022-11-11T13:21:26.784Z,99278.00
2022-11-11T13:23:54.026Z,99258.00
2022-11-11T13:26:54.285Z,99261.00
2022-11-11T13:29:52.098Z,99275.00
2022-11-11T13:32:24.881Z,99268.00
2022-11-11T13:34:53.265Z,99257.00
2022-11-11T13:37:33.373Z,99263.00
2022-11-11T13:40:40.863Z,99270.00
2022-11-11T13:43:41.316Z,99262.00
2022-11-11T13:46:28.897Z,99268.00
2022-11-11T13:48:56.837Z,99282.00
2022-11-11T13:51:43.589Z,99266.00
2022-11-11T13:54:30.823Z,99279.00
2022-11-11T13:57:24.706Z,99267.00
2022-11-11T14:00:01.276Z,99262.00
2022-11-11T14:02:32.419Z,99258.00
2022-11-11T14:05:02.494Z,99264.00
2022-11-11T14:07:44.959Z,99264.00
2022-11-11T14:10:18.088Z,99267.00
2022-11-11T14:13:24.590Z,99267.00
2022-11-11T14:15:54.422Z,99271.00
2022-11-11T14:18:24.350Z,99274.00
2022-11-11T14:20:53.534Z,99271.00
2022-11-11T14:23:39.107Z,99268.00
2022-11-11T14:26:10.065Z,99282.00
2022-11-11T14:28:59.697Z,99270.00
2022-11-11T14:31:48.532Z,99283.00
2022-11-11T14:34:37.233Z,99277.00
2022-11-11T14:37:46.467Z,99291.00
2022-11-11T14:40:30.121Z,99290.00
2022-11-11T14:42:59.014Z,99282.00
2022-11-11T14:45:31.935Z,99290.00
2022-11-11T14:47:59.308Z,99286.00
2022-11-11T14:50:32.749Z,99290.00
2022-11-11T14:53:08.710Z,99289.00
2022-11-11T14:55:38.372Z,99289.00
2022-11-11T14:58:08.467Z,99288.00
2022-11-11T15:01:03.994Z,99287.00
2022-11-11T15:03:41.708Z,99292.00
2022-11-11T15:06:23.844Z,99283.00
2022-11-11T15:09:15.635Z,99281.00
2022-11-11T15:12:17.629Z,99298.00
2022-11-11T15:15:19.330Z,99292.00
2022-11-11T15:17:52.461Z,99290.00
2022-11-11T15:21:04.483Z,99295.00
2022-11-11T15:23:42.454Z,99290.00
2022-11-11T15:26:25.614Z,99284.00
2022-11-11T15:29:30.191Z,99280.00
2022-11-11T15:32:39.726Z,99286.00
2022-11-11T15:35:43.166Z,99288.00
2022-11-11T15:38:13.890Z,99293.00
2022-11-11T15:40:50.844Z,99307.00
2022-11-11T15:43:29.443Z,99311.00
2022-11-11T15:46:03.745Z,99294.00
2022-11-11T15:48:38.609Z,99287.00
2022-11-11T15:51:36.331Z,99294.00
2022-11-11T15:54:23.006Z,99289.00
2022-11-11T15:56:50.236Z,99283.00
2022-11-11T15:59:36.434Z,99286.00
2022-11-11T16:02:32.308Z,99287.00
2022-11-11T16:05:08.493Z,99277.00
2022-11-11T16:07:42.995Z,99275.00
2022-11-11T16:10:29.307Z,99274.00
2022-11-11T16:13:16.450Z,99281.00
2022-11-11T16:15:53.077Z,99293.00
2022-11-11T16:18:51.193Z,99291.00
2022-11-11T16:21:33.043Z,99309.00
2022-11-11T16:24:01.356Z,99300.00
2022-11-11T16:26:33.229Z,99304.00
2022-11-11T16:29:00.337Z,99289.00
2022-11-11T16:31:45.073Z,99285.00
2022-11-11T16:34:31.003Z,99289.00
2022-11-11T16:37:15.763Z,99295.00
2022-11-11T16:39:45.438Z,99289.00
2022-11-11T16:42:29.564Z,99299.00
2022-11-11T16:45:07.017Z,99296.00
2022-11-11T16:47:34.164Z,99298.00
2022-11-11T16:50:22.771Z,99291.00
2022-11-11T16:52:57.861Z,99289.00
2022-11-11T16:55:55.464Z,99288.00
2022-11-11T16:58:23.372Z,99281.00
2022-11-11T17:00:59.356Z,99289.00
2022-11-11T17:03:27.592Z,99279.00
2022-11-11T17:06:08.049Z,99297.00
2022-11-11T17:08:44.310Z,99295.00
2022-11-11T17:11:41.569Z,99289.00
2022-11-11T17:14:08.943Z,99297.00
2022-11-11T17:16:36.929Z,99294.00
2022-11-11T17:19:04.664Z,99297.00
2022-11-11T17:21:31.744Z,99297.00
2022-11-11T17:23:58.950Z,99305.00
2022-11-11T17:26:26.111Z,99297.00
2022-11-11T17:28:53.256Z,99294.00
2022-11-11T17:31:20.346Z,99298.00
2022-11-11T17:33:47.515Z,99300.00
2022-11-11T17:36:14.575Z,99291.00
2022-11-11T17:38:41.558Z,99297.00
2022-11-11T17:41:09.765Z,99298.00
2022-11-11T17:43:36.859Z,99298.00
2022-11-11T17:46:04.833Z,99313.00
2022-11-11T17:48:32.497Z,99308.00
2022-11-11T17:51:05.628Z,99308.00
2022-11-11T17:53:37.196Z,99316.00
2022-11-11T17:56:06.423Z,99315.00
2022-11-11T17:58:40.940Z,99307.00
2022-11-11T18:01:14.937Z,99289.00
2022-11-11T18:03:42.895Z,99289.00
2022-11-11T18:06:10.967Z,99291.00
2022-11-11T18:08:38.634Z,99299.00
2022-11-11T18:11:09.013Z,99307.00
2022-11-11T18:13:36.494Z,99315.00
2022-11-11T18:16:06.421Z,99316.00
2022-11-11T18:18:33.907Z,99330.00
2022-11-11T18:21:05.911Z,99322.00
2022-11-11T18:23:36.591Z,99321.00
2022-11-11T18:26:04.886Z,99320.00
2022-11-11T18:28:35.400Z,99312.00
2022-11-11T18:31:09.916Z,99306.00
2022-11-11T18:33:38.554Z,99308.00
2022-11-11T18:36:15.227Z,99318.00
2022-11-11T18:38:43.608Z,99317.00
2022-11-11T18:41:17.741Z,99328.00
2022-11-11T18:43:48.811Z,99329.00
2022-11-11T18:46:25.617Z,99330.00
2022-11-11T18:48:58.955Z,99326.00
2022-11-11T18:51:28.561Z,99331.00
2022-11-11T18:53:55.639Z,99315.00
2022-11-11T18:56:26.065Z,99329.00
2022-11-11T18:58:56.853Z,99325.00
2022-11-11T19:01:28.326Z,99323.00
2022-11-11T19:04:05.090Z,99330.00
2022-11-11T19:06:36.201Z,99322.00
2022-11-11T19:09:07.237Z,99320.00
2022-11-11T19:11:42.113Z,99326.00
2022-11-11T19:14:10.866Z,99314.00
2022-11-11T19:16:39.009Z,99315.00
2022-11-11T19:19:06.916Z,99311.00
2022-11-11T19:21:37.742Z,99324.00
2022-11-11T19:24:08.084Z,99318.00
2022-11-11T19:26:35.333Z,99325.00
2022-11-11T19:29:05.974Z,99326.00
2022-11-11T19:31:33.480Z,99334.00
2022-11-11T19:34:01.209Z,99334.00
2022-11-11T19:36:30.061Z,99335.00
2022-11-11T19:39:01.980Z,99329.00
2022-11-11T19:41:31.855Z,99328.00
2022-11-11T19:43:59.822Z,99331.00
2022-11-11T19:46:30.394Z,99343.00
2022-11-11T19:48:59.266Z,99337.00
2022-11-11T19:51:32.976Z,99336.00
2022-11-11T19:54:00.406Z,99346.00
2022-11-11T19:56:31.208Z,99342.00
2022-11-11T19:58:58.724Z,99350.00
2022-11-11T20:01:27.445Z,99354.00
2022-11-11T20:03:55.603Z,99360.00
2022-11-11T20:06:33.718Z,99353.00
2022-11-11T20:09:07.769Z,99347.00
2022-11-11T20:11:36.818Z,99355.00
2022-11-11T20:14:05.467Z,99359.00
2022-11-11T20:16:33.376Z,99362.00
2022-11-11T20:19:01.683Z,99366.00
2022-11-11T20:21:29.197Z,99364.00
2022-11-11T20:23:56.734Z,99363.00
2022-11-11T20:26:24.659Z,99367.00
2022-11-11T20:28:57.528Z,99376.00
2022-11-11T20:31:25.632Z,99372.00
2022-11-11T20:33:52.937Z,99365.00
2022-11-11T20:36:20.136Z,99355.00
2022-11-11T20:38:47.558Z,99350.00
2022-11-11T20:41:20.040Z,99352.00
2022-11-11T20:43:47.712Z,99353.00
2022-11-11T20:46:20.204Z,99339.00
2022-11-11T20:48:50.198Z,99345.00
2022-11-11T20:51:20.998Z,99339.00
2022-11-11T20:53:53.221Z,99346.00
2022-11-11T20:56:24.159Z,99338.00
2022-11-11T20:58:53.544Z,99341.00
2022-11-11T21:01:27.427Z,99344.00
2022-11-11T21:04:00.417Z,99334.00
2022-11-11T21:06:30.335Z,99334.00
2022-11-11T21:08:58.546Z,99329.00
2022-11-11T21:11:26.075Z,99334.00
2022-11-11T21:13:56.279Z,99327.00
2022-11-11T21:16:27.170Z,99326.00
2022-11-11T21:18:56.814Z,99326.00
2022-11-11T21:21:28.346Z,99322.00
2022-11-11T21:24:04.295Z,99329.00
2022-11-11T21:26:33.060Z,99329.00
2022-11-11T21:29:00.578Z,99320.00
2022-11-11T21:31:34.476Z,99319.00
2022-11-11T21:34:07.788Z,99316.00
2022-11-11T21:36:38.201Z,99315.00
2022-11-11T21:39:06.899Z,99317.00
2022-11-11T21:41:37.473Z,99308.00
2022-11-11T21:44:07.319Z,99310.00
2022-11-11T21:46:36.700Z,99309.00
2022-11-11T21:49:05.433Z,99313.00
2022-11-11T21:51:34.707Z,99309.00
2022-11-11T21:54:10.510Z,99312.00
2022-11-11T21:56:39.153Z,99310.00
2022-11-11T21:59:08.227Z,99316.00
2022-11-11T22:01:41.552Z,99323.00
2022-11-11T22:04:12.434Z,99326.00
2022-11-11T22:06:40.557Z,99327.00
2022-11-11T22:09:08.678Z,99328.00
2022-11-11T22:11:37.189Z,99325.00
2022-11-11T22:14:05.899Z,99322.00
2022-11-11T22:16:36.754Z,99315.00
2022-11-11T22:19:08.073Z,99321.00
2022-11-11T22:21:37.226Z,99312.00
2022-11-11T22:24:08.288Z,99319.00
2022-11-11T22:26:42.373Z,99324.00
2022-11-11T22:29:12.070Z,99318.00
2022-11-11T22:31:42.179Z,99317.00
2022-11-11T22:34:13.034Z,99312.00
2022-11-11T22:36:40.778Z,99310.00
2022-11-11T22:39:09.264Z,99308.00
2022-11-11T22:41:39.676Z,99306.00
2022-11-11T22:44:07.122Z,99300.00
2022-11-11T22:46:35.694Z,99307.00
2022-11-11T22:49:07.455Z,99307.00
2022-11-11T22:51:34.654Z,99310.00
2022-11-11T22:54:05.936Z,99295.00
2022-11-11T22:56:36.165Z,99307.00
2022-11-11T22:59:04.235Z,99296.00
2022-11-11T23:01:33.361Z,99307.00
2022-11-11T23:04:03.100Z,99315.00
2022-11-11T23:06:36.215Z,99313.00
2022-11-11T23:09:06.745Z,99315.00
2022-11-11T23:11:36.472Z,99311.00
2022-11-11T23:14:08.098Z,99312.00
2022-11-11T23:16:35.394Z,99300.00
2022-11-11T23:19:04.350Z,99309.00
2022-11-11T23:21:31.826Z,99307.00
2022-11-11T23:23:59.547Z,99296.00
2022-11-11T23:26:30.855Z,99305.00
2022-11-11T23:28:58.963Z,99299.00
2022-11-11T23:31:32.174Z,99300.00
2022-11-11T23:34:02.136Z,99314.00
2022-11-11T23:36:34.024Z,99304.00
2022-11-11T23:39:01.317Z,99309.00
2022-11-11T23:41:28.930Z,99313.00
2022-11-11T23:43:56.720Z,99308.00
2022-11-11T23:46:24.086Z,99308.00
2022-11-11T23:48:51.565Z,99306.00
2022-11-11T23:51:18.932Z,99314.00
2022-11-11T23:53:46.067Z,99309.00
2022-11-11T23:56:13.459Z,99299.00
2022-11-11T23:58:40.579Z,99294.00
